Thunder radar more information blitzortung!


avis per Pluja more information rain snow radar


Visita la nostra xarxa de llocs de meteo:

Template documentation
and downloads

And another site



Rain From: 18-11-2018 11:00 Until: 20:59 warning for: Rain Level: Yellow info button

Pagina Historial Weather Underground text

Diari Resum January 6, 2018 Unitats:  Imperial    Mètric   Tant
« Previous Dia
SegĂźent Dia »
Diari Setmana Mensual Anual Personalitzada
  Maxima: Minima: Media:
Temperatura: TemperatureF °F 40.3 °F 52.6 °F
Punt de rosada: DewpointF °F 29.4 °F 42.9 °F
Humitat: Humidity % 52 % 70 %
Wind Speed: WindSpeedMPH mph 0.0 mph 5.4 mph
RĂ fegues de vent: WindSpeedGustMPH mph - -
Vent:- - East
Pression baro: PressureIn in 29.44 in -
Precipitacions: 0.41 in    
Historical Graphs
 
 
Dades de taula per January 6, 2018
Temps Temperatura Punt de rosada Pression baro Vent Wind Speed RĂ fegues de vent Humitat Rainfall Rate (Hourly)
TemperatureF °F DewpointF °F PressureIn in Calm     Humidity % HourlyPrecipIn in
00:00 40.3 °F 29.4 °F 29.65 in Calm   1.0 mph 65 % 0.00 in
00:03 47.7 °F 31.4 °F 29.74 in NE 1.2 mph   53 % 0.00 in
00:04 47.7 °F 31.4 °F 29.74 in Calm     53 % 0.00 in
00:09 47.7 °F 30.9 °F 29.74 in NW 1.2 mph 1.4 mph 52 % 0.00 in
00:10 40.6 °F 29.8 °F 29.65 in SE 1.0 mph 2.0 mph 65 % 0.00 in
00:11 47.7 °F 30.9 °F 29.74 in NW 1.2 mph   52 % 0.00 in
00:16 47.7 °F 31.4 °F 29.74 in WNW 2.3 mph 2.3 mph 53 % 0.00 in
00:18 47.7 °F 31.4 °F 29.74 in WNW 1.2 mph   53 % 0.00 in
00:23 47.3 °F 31.0 °F 29.74 in West 2.3 mph 2.3 mph 53 % 0.00 in
00:25 47.3 °F 31.0 °F 29.74 in West 1.2 mph 1.2 mph 53 % 0.00 in
00:30 47.3 °F 31.0 °F 29.74 in ENE 1.2 mph 1.4 mph 53 % 0.00 in
00:31 47.1 °F 30.9 °F 29.74 in ENE 1.4 mph   53 % 0.00 in
00:36 46.9 °F 31.1 °F 29.71 in NNE 1.2 mph   54 % 0.00 in
00:38 46.9 °F 31.1 °F 29.71 in Calm     54 % 0.00 in
00:43 46.8 °F 31.0 °F 29.71 in West 2.0 mph 2.0 mph 54 % 0.00 in
00:48 46.6 °F 30.3 °F 29.71 in WSW 2.3 mph 2.3 mph 53 % 0.00 in
00:50 46.8 °F 31.0 °F 29.71 in WSW 2.3 mph 2.3 mph 54 % 0.00 in
00:55 46.8 °F 31.0 °F 29.71 in WSW 2.3 mph 2.3 mph 54 % 0.00 in
00:56 46.8 °F 31.0 °F 29.71 in WSW 2.3 mph 2.3 mph 54 % 0.00 in
00:57 46.9 °F 31.1 °F 29.71 in SW 1.4 mph 1.4 mph 54 % 0.00 in
01:02 46.8 °F 31.0 °F 29.71 in ESE 3.1 mph 3.1 mph 54 % 0.00 in
01:07 46.0 °F 30.8 °F 29.71 in ESE 3.5 mph 3.5 mph 55 % 0.00 in
01:09 46.0 °F 30.8 °F 29.71 in NE 2.3 mph 2.3 mph 55 % 0.00 in
01:20 40.8 °F 30.7 °F 29.65 in WSW 1.0 mph 1.0 mph 67 % 0.00 in
01:40 40.5 °F 30.0 °F 29.65 in SW 2.0 mph 3.0 mph 66 % 0.00 in
01:50 40.6 °F 30.2 °F 29.65 in Calm   3.0 mph 66 % 0.00 in
02:00 40.6 °F 30.5 °F 29.65 in Calm   2.0 mph 67 % 0.00 in
02:10 40.6 °F 30.5 °F 29.65 in SW 2.0 mph 3.0 mph 67 % 0.00 in
02:20 40.8 °F 30.7 °F 29.65 in SW 1.0 mph 2.0 mph 67 % 0.00 in
02:30 41.2 °F 31.0 °F 29.65 in Calm   3.0 mph 67 % 0.00 in
02:40 41.4 °F 31.2 °F 29.65 in Calm   1.0 mph 67 % 0.00 in
02:50 41.5 °F 31.4 °F 29.65 in Calm   1.0 mph 67 % 0.00 in
03:00 41.7 °F 31.6 °F 29.65 in Calm   2.0 mph 67 % 0.00 in
03:10 42.3 °F 32.4 °F 29.68 in SW 1.0 mph 2.0 mph 68 % 0.00 in
03:20 43.3 °F 33.5 °F 29.65 in Calm     68 % 0.00 in
03:30 43.5 °F 33.3 °F 29.65 in Calm   2.0 mph 67 % 0.00 in
03:40 43.7 °F 33.5 °F 29.65 in West 3.0 mph 3.0 mph 67 % 0.00 in
03:50 43.9 °F 33.6 °F 29.68 in NW 1.0 mph 4.0 mph 67 % 0.00 in
04:00 44.6 °F 33.9 °F 29.68 in WNW 2.0 mph 5.0 mph 66 % 0.00 in
04:10 45.1 °F 34.8 °F 29.65 in NNE 2.0 mph 3.0 mph 67 % 0.00 in
04:20 45.5 °F 34.8 °F 29.65 in NE 1.0 mph 2.0 mph 66 % 0.00 in
04:30 45.9 °F 35.1 °F 29.65 in NNE 1.0 mph 2.0 mph 66 % 0.00 in
04:40 46.4 °F 35.7 °F 29.65 in NNE 1.0 mph 2.0 mph 66 % 0.00 in
04:50 46.8 °F 36.0 °F 29.65 in Calm   2.0 mph 66 % 0.00 in
05:00 47.5 °F 36.7 °F 29.65 in NE 2.0 mph 3.0 mph 66 % 0.00 in
05:20 48.2 °F 37.0 °F 29.68 in ENE 1.0 mph 2.0 mph 65 % 0.00 in
05:30 48.2 °F 37.0 °F 29.68 in NE 1.0 mph 3.0 mph 65 % 0.00 in
05:40 48.4 °F 36.8 °F 29.68 in ENE 2.0 mph 2.0 mph 64 % 0.00 in
11:49 48.6 °F 36.9 °F 29.68 in West 3.5 mph 3.5 mph 64 % 0.00 in
11:50 48.6 °F 36.9 °F 29.68 in NE 3.5 mph 3.5 mph 64 % 0.00 in
11:55 48.7 °F 37.1 °F 29.65 in NNE 4.6 mph 4.6 mph 64 % 0.00 in
12:00 48.7 °F 37.1 °F 29.65 in NNE 3.5 mph 3.5 mph 64 % 0.00 in
12:05 49.1 °F 37.4 °F 29.65 in NE 3.3 mph 3.3 mph 64 % 0.00 in
12:10 49.5 °F 37.8 °F 29.65 in ENE 2.6 mph 2.6 mph 64 % 0.00 in
12:11 49.5 °F 37.8 °F 29.65 in NNW 2.3 mph 2.3 mph 64 % 0.00 in
12:16 50.0 °F 38.3 °F 29.65 in NNE 2.3 mph 2.3 mph 64 % 0.00 in
12:21 50.4 °F 38.6 °F 29.65 in NE 2.3 mph 2.3 mph 64 % 0.00 in
12:25 50.7 °F 39.0 °F 29.65 in NNE 2.3 mph 2.3 mph 64 % 0.00 in
12:30 51.1 °F 39.3 °F 29.65 in North 3.5 mph 3.5 mph 64 % 0.00 in
12:35 51.3 °F 39.5 °F 29.65 in NNE 2.3 mph 2.3 mph 64 % 0.00 in
12:40 51.1 °F 39.3 °F 29.65 in ENE 4.6 mph 4.6 mph 64 % 0.00 in
12:46 51.1 °F 38.9 °F 29.65 in NNE 4.6 mph 4.6 mph 63 % 0.00 in
12:51 51.4 °F 39.3 °F 29.62 in NW 2.4 mph 2.4 mph 63 % 0.00 in
12:54 51.4 °F 39.3 °F 29.62 in West 1.6 mph 2.0 mph 63 % 0.00 in
12:59 51.6 °F 39.4 °F 29.62 in WNW 3.5 mph 3.5 mph 63 % 0.00 in
13:04 51.6 °F 39.4 °F 29.62 in NE 3.8 mph 3.8 mph 63 % 0.00 in
13:09 51.6 °F 39.4 °F 29.62 in NE 2.3 mph 2.3 mph 63 % 0.00 in
13:10 51.8 °F 39.6 °F 29.62 in NE 2.3 mph 2.3 mph 63 % 0.00 in
13:12 51.8 °F 39.6 °F 29.62 in NE 3.5 mph 3.5 mph 63 % 0.00 in
13:20 52.7 °F 40.5 °F 29.62 in ENE 3.5 mph 3.5 mph 63 % 0.00 in
13:25 53.2 °F 41.0 °F 29.62 in NNE 2.3 mph 2.3 mph 63 % 0.00 in
13:27 53.2 °F 41.0 °F 29.62 in East 2.6 mph 2.6 mph 63 % 0.00 in
13:32 53.6 °F 41.3 °F 29.62 in NE 4.6 mph 4.6 mph 63 % 0.00 in
13:39 53.8 °F 41.5 °F 29.59 in NNE 4.6 mph 4.6 mph 63 % 0.00 in
13:41 53.8 °F 41.5 °F 29.59 in ENE 3.5 mph 3.5 mph 63 % 0.00 in
13:47 53.8 °F 41.5 °F 29.59 in North 5.8 mph 5.8 mph 63 % 0.00 in
13:52 54.1 °F 42.2 °F 29.59 in ENE 1.2 mph 1.2 mph 64 % 0.00 in
13:56 54.3 °F 42.4 °F 29.59 in NNE 1.2 mph 1.2 mph 64 % 0.00 in
14:01 54.3 °F 42.4 °F 29.59 in ENE 1.2 mph   64 % 0.00 in
14:03 54.5 °F 42.6 °F 29.59 in Calm     64 % 0.00 in
14:08 54.7 °F 42.7 °F 29.59 in Calm     64 % 0.00 in
14:13 54.9 °F 42.5 °F 29.59 in NNE 2.3 mph 2.3 mph 63 % 0.00 in
14:14 54.9 °F 42.5 °F 29.59 in NE 2.3 mph 2.3 mph 63 % 0.00 in
14:19 54.9 °F 42.5 °F 29.59 in ENE 1.2 mph 1.2 mph 63 % 0.00 in
14:24 55.0 °F 42.7 °F 29.59 in ENE 3.8 mph 3.8 mph 63 % 0.00 in
14:28 55.2 °F 42.8 °F 29.59 in NE 3.5 mph 3.5 mph 63 % 0.00 in
14:30 55.2 °F 42.8 °F 29.59 in NE 2.4 mph 2.4 mph 63 % 0.00 in
14:35 55.6 °F 43.2 °F 29.59 in North 2.6 mph 2.6 mph 63 % 0.00 in
14:40 55.8 °F 43.8 °F 29.56 in ENE 2.3 mph 2.3 mph 64 % 0.00 in
14:45 55.6 °F 43.2 °F 29.56 in NE 4.6 mph 4.6 mph 63 % 0.00 in
14:49 55.8 °F 43.3 °F 29.56 in ENE 3.5 mph 3.5 mph 63 % 0.00 in
14:54 55.6 °F 43.2 °F 29.59 in ENE 5.8 mph 5.8 mph 63 % 0.00 in
14:59 55.6 °F 43.2 °F 29.59 in NNE 4.6 mph 4.6 mph 63 % 0.00 in
15:04 55.6 °F 43.2 °F 29.59 in NNE 6.9 mph 6.9 mph 63 % 0.00 in
15:05 55.8 °F 43.8 °F 29.59 in NNE 5.8 mph 5.8 mph 64 % 0.00 in
15:10 55.9 °F 43.9 °F 29.56 in East 6.0 mph 6.0 mph 64 % 0.00 in
15:11 55.9 °F 43.9 °F 29.56 in East 5.8 mph 5.8 mph 64 % 0.00 in
15:15 55.9 °F 43.9 °F 29.56 in NNE 4.6 mph 4.6 mph 64 % 0.00 in
15:20 55.9 °F 43.9 °F 29.59 in NNE 4.9 mph 4.9 mph 64 % 0.00 in
15:23 55.9 °F 43.9 °F 29.59 in NNE 5.8 mph 5.8 mph 64 % 0.00 in
15:28 56.3 °F 44.7 °F 29.59 in East 8.5 mph 8.5 mph 65 % 0.00 in
15:33 56.5 °F 45.3 °F 29.59 in ENE 6.9 mph 6.9 mph 66 % 0.00 in
15:38 56.5 °F 45.3 °F 29.56 in East 8.1 mph 8.1 mph 66 % 0.00 in
15:39 56.5 °F 45.3 °F 29.56 in NE 6.9 mph 6.9 mph 66 % 0.00 in
15:44 56.5 °F 45.3 °F 29.56 in NE 5.8 mph 5.8 mph 66 % 0.00 in
15:45 56.5 °F 45.3 °F 29.56 in ENE 7.8 mph 7.8 mph 66 % 0.00 in
15:50 56.5 °F 45.3 °F 29.56 in East 7.4 mph 7.4 mph 66 % 0.00 in
15:55 56.5 °F 45.3 °F 29.53 in ENE 7.6 mph 7.6 mph 66 % 0.00 in
15:58 56.5 °F 45.3 °F 29.53 in NNE 9.2 mph 9.2 mph 66 % 0.00 in
16:03 56.3 °F 45.1 °F 29.53 in ENE 6.9 mph 6.9 mph 66 % 0.00 in
16:08 56.3 °F 45.1 °F 29.53 in NE 6.9 mph 6.9 mph 66 % 0.00 in
16:13 56.3 °F 45.1 °F 29.53 in ENE 8.1 mph 8.1 mph 66 % 0.00 in
16:18 56.3 °F 45.1 °F 29.53 in East 8.1 mph 8.1 mph 66 % 0.00 in
16:23 56.3 °F 44.7 °F 29.53 in North 8.1 mph 8.1 mph 65 % 0.00 in
16:25 56.3 °F 44.7 °F 29.53 in NNE 4.9 mph 4.9 mph 65 % 0.00 in
16:30 56.1 °F 44.5 °F 29.53 in East 5.8 mph 5.8 mph 65 % 0.00 in
16:31 56.1 °F 44.5 °F 29.53 in ENE 5.8 mph 5.8 mph 65 % 0.00 in
16:34 56.1 °F 44.5 °F 29.53 in ENE 10.4 mph 10.4 mph 65 % 0.00 in
16:39 56.1 °F 44.5 °F 29.53 in ENE 10.4 mph 10.4 mph 65 % 0.00 in
16:44 56.1 °F 44.5 °F 29.53 in NNE 11.2 mph 11.2 mph 65 % 0.00 in
16:49 56.1 °F 44.5 °F 29.53 in ENE 13.8 mph 13.8 mph 65 % 0.00 in
16:54 56.1 °F 44.9 °F 29.53 in East 9.7 mph 9.7 mph 66 % 0.00 in
16:57 56.1 °F 44.9 °F 29.53 in NE 10.4 mph 10.4 mph 66 % 0.00 in
17:01 56.1 °F 44.9 °F 29.53 in NNE 10.4 mph 10.4 mph 66 % 0.00 in
17:06 56.1 °F 44.9 °F 29.50 in ENE 8.1 mph 8.1 mph 66 % 0.00 in
17:11 56.1 °F 44.9 °F 29.50 in ENE 8.1 mph 8.1 mph 66 % 0.00 in
17:16 56.1 °F 44.9 °F 29.50 in ESE 9.2 mph 9.2 mph 66 % 0.00 in
17:21 55.9 °F 44.7 °F 29.53 in NNE 8.1 mph 8.1 mph 66 % 0.00 in
17:25 55.9 °F 45.1 °F 29.53 in North 5.8 mph 5.8 mph 67 % 0.00 in
17:30 55.9 °F 45.1 °F 29.53 in NNE 10.4 mph 10.4 mph 67 % 0.00 in
17:32 55.9 °F 45.1 °F 29.53 in NE 12.7 mph 12.7 mph 67 % 0.00 in
17:37 55.8 °F 45.4 °F 29.50 in ENE 9.7 mph 9.7 mph 68 % 0.00 in
17:39 55.8 °F 45.4 °F 29.50 in ENE 9.2 mph 9.2 mph 68 % 0.00 in
17:42 55.8 °F 45.4 °F 29.50 in NNE 8.1 mph 8.1 mph 68 % 0.00 in
17:47 55.6 °F 45.2 °F 29.50 in NNE 8.1 mph 8.1 mph 68 % 0.00 in
17:52 55.6 °F 45.6 °F 29.50 in East 9.2 mph 9.2 mph 69 % 0.00 in
17:57 55.6 °F 45.6 °F 29.50 in East 4.6 mph 4.6 mph 69 % 0.00 in
17:59 55.6 °F 45.6 °F 29.50 in ENE 6.9 mph 6.9 mph 69 % 0.00 in
18:04 55.6 °F 45.9 °F 29.50 in North 5.8 mph 5.8 mph 70 % 0.00 in
18:06 55.6 °F 45.9 °F 29.53 in ENE 5.8 mph 5.8 mph 70 % 0.00 in
18:07 55.6 °F 46.3 °F 29.53 in NNE 6.9 mph 6.9 mph 71 % 0.00 in
18:12 55.6 °F 46.3 °F 29.53 in ENE 9.2 mph 9.2 mph 71 % 0.00 in
18:15 55.6 °F 46.3 °F 29.53 in ESE 8.1 mph 8.1 mph 71 % 0.00 in
18:20 55.6 °F 46.7 °F 29.53 in NE 8.0 mph 15.0 mph 72 % 0.00 in
18:25 55.4 °F 46.5 °F 29.50 in ENE 5.0 mph 12.0 mph 72 % 0.00 in
18:30 55.4 °F 46.5 °F 29.50 in ENE 6.0 mph 12.0 mph 72 % 0.00 in
18:35 55.4 °F 46.5 °F 29.50 in ESE 8.1 mph 8.1 mph 72 % 0.00 in
18:39 55.4 °F 46.5 °F 29.50 in East 3.5 mph 3.5 mph 72 % 0.00 in
18:44 55.4 °F 46.5 °F 29.50 in East 9.7 mph 9.7 mph 72 % 0.00 in
18:47 55.4 °F 46.9 °F 29.50 in ENE 5.8 mph 5.8 mph 73 % 0.00 in
18:50 54.5 °F 49.4 °F 29.47 in ESE 2.0 mph 3.0 mph 83 % 0.00 in
18:52 55.4 °F 46.9 °F 29.53 in ENE 5.8 mph 5.8 mph 73 % 0.00 in
18:53 55.4 °F 46.9 °F 29.53 in ENE 5.8 mph 5.8 mph 73 % 0.00 in
18:58 55.4 °F 47.2 °F 29.53 in NE 9.2 mph 9.2 mph 74 % 0.00 in
19:00 54.1 °F 49.1 °F 29.47 in SSW 2.0 mph 2.0 mph 83 % 0.04 in
19:02 55.4 °F 47.2 °F 29.53 in ENE 9.2 mph 9.2 mph 74 % 0.00 in
19:07 55.4 °F 47.2 °F 29.53 in ENE 6.9 mph 6.9 mph 74 % 0.00 in
19:09 55.4 °F 47.2 °F 29.53 in ESE 5.8 mph 5.8 mph 74 % 0.00 in
19:14 55.4 °F 47.2 °F 29.53 in ESE 6.9 mph 6.9 mph 74 % 0.00 in
19:19 55.4 °F 47.2 °F 29.53 in ENE 9.2 mph 9.2 mph 74 % 0.00 in
19:20 54.7 °F 50.3 °F 29.47 in ESE 5.0 mph 6.0 mph 85 % 0.00 in
19:21 55.4 °F 47.6 °F 29.50 in East 5.8 mph 5.8 mph 75 % 0.00 in
19:26 55.4 °F 48.0 °F 29.50 in East 6.9 mph 6.9 mph 76 % 0.00 in
19:30 55.0 °F 50.6 °F 29.47 in ESE 3.0 mph 7.0 mph 85 % 0.00 in
19:31 55.4 °F 48.0 °F 29.50 in ENE 8.1 mph 8.1 mph 76 % 0.00 in
19:36 55.4 °F 48.0 °F 29.53 in East 12.7 mph 12.7 mph 76 % 0.00 in
19:42 55.4 °F 48.0 °F 29.53 in ENE 10.4 mph 10.4 mph 76 % 0.00 in
19:43 55.4 °F 48.0 °F 29.53 in East 8.1 mph 8.1 mph 76 % 0.00 in
19:47 55.4 °F 47.6 °F 29.53 in ENE 17.0 mph 17.0 mph 75 % 0.00 in
19:49 55.4 °F 47.6 °F 29.53 in ENE 6.9 mph 6.9 mph 75 % 0.00 in
19:55 55.4 °F 47.6 °F 29.50 in NE 12.5 mph 12.5 mph 75 % 0.00 in
19:59 55.4 °F 47.2 °F 29.50 in NE 10.4 mph 10.4 mph 74 % 0.00 in
20:00 55.2 °F 51.1 °F 29.50 in ESE 6.0 mph 6.0 mph 86 % 0.00 in
20:04 55.4 °F 47.6 °F 29.50 in East 10.4 mph 10.4 mph 75 % 0.00 in
20:09 55.4 °F 47.6 °F 29.50 in NE 9.2 mph 9.2 mph 75 % 0.00 in
20:10 55.0 °F 51.2 °F 29.53 in ESE 2.0 mph 4.0 mph 87 % 0.00 in
20:14 55.4 °F 47.6 °F 29.50 in ENE 10.4 mph 10.4 mph 75 % 0.00 in
20:15 55.4 °F 47.6 °F 29.50 in ESE 8.1 mph 8.1 mph 75 % 0.00 in
20:20 55.4 °F 47.6 °F 29.50 in ENE 12.7 mph 12.7 mph 75 % 0.00 in
20:25 55.4 °F 47.6 °F 29.50 in ENE 11.5 mph 11.5 mph 75 % 0.00 in
20:30 55.4 °F 48.0 °F 29.50 in ESE 10.4 mph 10.4 mph 76 % 0.00 in
20:35 55.4 °F 48.0 °F 29.50 in North 13.8 mph 13.8 mph 76 % 0.00 in
20:40 55.4 °F 48.0 °F 29.47 in NNE 7.6 mph 7.6 mph 76 % 0.00 in
20:45 55.4 °F 48.0 °F 29.47 in East 11.5 mph 11.5 mph 76 % 0.00 in
20:46 55.6 °F 48.1 °F 29.47 in ENE 11.5 mph 11.5 mph 76 % 0.00 in
20:51 55.6 °F 48.5 °F 29.47 in NNE 10.0 mph 10.0 mph 77 % 0.00 in
20:52 55.6 °F 48.5 °F 29.47 in NE 10.7 mph 10.7 mph 77 % 0.00 in
20:57 55.6 °F 48.5 °F 29.47 in NNE 10.4 mph 10.4 mph 77 % 0.00 in
21:02 55.8 °F 48.7 °F 29.47 in ENE 13.8 mph 13.8 mph 77 % 0.00 in
21:05 53.8 °F 49.4 °F 29.50 in ENE 3.0 mph 6.0 mph 85 % 0.00 in
21:06 55.8 °F 48.7 °F 29.47 in East 13.8 mph 13.8 mph 77 % 0.00 in
21:11 55.8 °F 48.7 °F 29.47 in NE 12.1 mph 12.1 mph 77 % 0.00 in
21:16 55.8 °F 48.7 °F 29.47 in North 9.2 mph 9.2 mph 77 % 0.00 in
21:18 55.8 °F 48.7 °F 29.47 in NE 6.9 mph 6.9 mph 77 % 0.00 in
21:23 55.8 °F 48.7 °F 29.47 in ENE 9.2 mph 9.2 mph 77 % 0.00 in
21:25 53.4 °F 49.0 °F 29.50 in ENE 5.0 mph 7.0 mph 85 % 0.04 in
21:26 55.6 °F 48.5 °F 29.47 in ENE 6.0 mph 6.0 mph 77 % 0.00 in
21:28 55.6 °F 48.5 °F 29.47 in NNE 6.9 mph 6.9 mph 77 % 0.00 in
21:33 55.6 °F 48.5 °F 29.47 in ESE 8.1 mph 8.1 mph 77 % 0.00 in
21:35 53.4 °F 49.0 °F 29.50 in ENE 3.0 mph 6.0 mph 85 % 0.00 in
21:38 55.8 °F 48.7 °F 29.44 in East 9.2 mph 9.2 mph 77 % 0.00 in
21:43 55.8 °F 49.0 °F 29.44 in ENE 12.7 mph 12.7 mph 78 % 0.00 in
21:45 53.4 °F 49.3 °F 29.50 in East 3.0 mph 7.0 mph 86 % 0.00 in
21:48 55.8 °F 49.0 °F 29.44 in East 11.5 mph 11.5 mph 78 % 0.00 in
21:52 55.8 °F 49.3 °F 29.47 in East 6.0 mph 6.0 mph 79 % 0.00 in
21:55 53.6 °F 49.5 °F 29.50 in East 5.0 mph 10.0 mph 86 % 0.00 in
21:57 55.6 °F 48.8 °F 29.47 in ENE 5.8 mph 5.8 mph 78 % 0.00 in
22:02 55.6 °F 49.2 °F 29.47 in ENE 12.7 mph 12.7 mph 79 % 0.00 in
22:05 53.6 °F 49.8 °F 29.50 in East 5.0 mph 5.0 mph 87 % 0.00 in
22:07 55.8 °F 49.3 °F 29.44 in ESE 10.2 mph 10.2 mph 79 % 0.00 in
22:13 55.6 °F 49.2 °F 29.44 in East 12.7 mph 12.7 mph 79 % 0.00 in
22:15 53.4 °F 49.0 °F 29.50 in East 3.0 mph 6.0 mph 85 % 0.00 in
22:18 55.4 °F 49.3 °F 29.44 in ENE 9.2 mph 9.2 mph 80 % 0.00 in
22:23 55.2 °F 49.5 °F 29.44 in East 10.4 mph 10.4 mph 81 % 0.00 in
22:27 54.9 °F 49.5 °F 29.44 in ENE 6.2 mph 6.2 mph 82 % 0.04 in
22:32 54.7 °F 49.3 °F 29.44 in SSE 8.1 mph 8.1 mph 82 % 0.12 in
22:35 53.2 °F 48.2 °F 29.50 in SE 2.0 mph 5.0 mph 83 % 0.00 in
22:37 54.7 °F 49.6 °F 29.47 in SW 6.0 mph 6.0 mph 83 % 0.12 in
22:39 54.7 °F 49.6 °F 29.47 in SSE 9.2 mph 9.2 mph 83 % 0.16 in
22:44 54.5 °F 49.4 °F 29.47 in SSE 3.5 mph 3.5 mph 83 % 0.25 in
22:49 53.6 °F 48.6 °F 29.47 in NNW 5.8 mph 5.8 mph 83 % 0.25 in
22:50 53.6 °F 48.6 °F 29.47 in ESE 5.6 mph 5.6 mph 83 % 0.25 in
22:55 53.4 °F 49.0 °F 29.47 in WNW 4.0 mph 4.0 mph 85 % 0.25 in
23:01 54.0 °F 49.6 °F 29.47 in SE 5.8 mph 5.8 mph 85 % 0.25 in
23:05 52.9 °F 47.2 °F 29.53 in ESE 1.0 mph 3.0 mph 81 % 0.00 in
23:06 54.3 °F 49.9 °F 29.47 in ESE 2.3 mph 2.3 mph 85 % 0.25 in
23:08 54.3 °F 49.9 °F 29.47 in SSW 3.5 mph 3.5 mph 85 % 0.25 in
23:13 54.1 °F 49.7 °F 29.47 in SW 1.4 mph 1.4 mph 85 % 0.25 in
23:15 52.7 °F 46.7 °F 29.53 in SE 3.0 mph 3.0 mph 80 % 0.00 in
23:18 54.3 °F 50.2 °F 29.47 in SSW 8.1 mph 8.1 mph 86 % 0.25 in
23:20 54.5 °F 50.4 °F 29.47 in East 8.1 mph 8.1 mph 86 % 0.25 in
23:23 54.7 °F 50.3 °F 29.47 in ESE 10.4 mph 10.4 mph 85 % 0.25 in
23:25 52.7 °F 46.7 °F 29.53 in ESE 2.0 mph 3.0 mph 80 % 0.00 in
23:28 55.0 °F 50.6 °F 29.47 in ENE 8.1 mph 8.1 mph 85 % 0.21 in
23:31 55.0 °F 50.6 °F 29.47 in East 8.1 mph 8.1 mph 85 % 0.17 in
23:32 55.0 °F 50.6 °F 29.47 in ENE 8.1 mph 8.1 mph 85 % 0.13 in
23:35 52.3 °F 46.4 °F 29.50 in Calm   2.0 mph 80 % 0.00 in
23:38 55.0 °F 50.6 °F 29.47 in SE 5.8 mph 5.8 mph 85 % 0.09 in
23:39 55.0 °F 50.6 °F 29.47 in ESE 5.8 mph 5.8 mph 85 % 0.09 in
23:44 54.9 °F 50.4 °F 29.47 in East 4.6 mph 4.6 mph 85 % 0.00 in
23:45 52.2 °F 46.2 °F 29.50 in NNE 2.0 mph 3.0 mph 80 % 0.00 in
23:49 55.0 °F 50.6 °F 29.47 in ENE 2.3 mph 2.3 mph 85 % 0.16 in
23:54 55.0 °F 50.6 °F 29.50 in ENE 3.5 mph 3.5 mph 85 % 0.16 in
Meteo Sesrovires
Elogis d' Weather Underground - 1.5 mb

Guio original per  Jim McMurry - jmcmurry@mwt.net Adaptat per a la plantilla per  Wim van der Kuil - Leuven-Template.eu

Trobareu la nostra informacio del temps tambe a:

Weather Underground

AWEKAS